Terminal Aerodrome Forecast
Issued by NWS Burlington, VT

Home | Current Version | Previous Version | Text Only | Print | Product List | Glossary On
Versions: 1 2 3 4 5 6 7 8 9 10 11 12 13 14 15
000
FTUS41 KBTV 271722
TAFBTV
TAF
KBTV 271722Z 2718/2818 34014KT P6SM VCSH BKN025 OVC035
     FM272200 35012KT P6SM OVC025
     FM280600 36008KT P6SM OVC025
     FM281000 36006KT P6SM BKN050
     FM281400 35013G20KT P6SM BKN060=

USA.gov is the U.S. government's official web portal to all federal, state and local government web resources and services.